createdAt,value
2018-07-04T00:01:37.656Z,14.20
2018-07-04T00:04:53.343Z,14.10
2018-07-04T00:08:09.093Z,14.00
2018-07-04T00:11:24.691Z,13.90
2018-07-04T00:14:40.310Z,13.90
2018-07-04T00:17:57.241Z,14.00
2018-07-04T00:21:13.825Z,13.80
2018-07-04T00:24:29.587Z,13.70
2018-07-04T00:27:45.000Z,13.80
2018-07-04T00:31:00.486Z,13.80
2018-07-04T00:34:16.138Z,13.80
2018-07-04T00:37:31.747Z,13.80
2018-07-04T00:40:47.296Z,13.70
2018-07-04T00:44:02.893Z,13.60
2018-07-04T00:47:18.750Z,13.50
2018-07-04T00:50:34.615Z,13.20
2018-07-04T00:53:50.377Z,13.00
2018-07-04T00:57:06.098Z,13.10
2018-07-04T01:00:22.475Z,13.10
2018-07-04T01:03:38.179Z,13.00
2018-07-04T01:06:53.915Z,12.90
2018-07-04T01:10:09.771Z,12.90
2018-07-04T01:13:25.529Z,12.70
2018-07-04T01:16:41.213Z,12.60
2018-07-04T01:19:57.001Z,12.70
2018-07-04T01:23:12.861Z,12.70
2018-07-04T01:26:29.477Z,12.70
2018-07-04T01:29:45.393Z,12.70
2018-07-04T01:33:01.302Z,12.60
2018-07-04T01:36:17.228Z,12.50
2018-07-04T01:39:33.272Z,12.50
2018-07-04T01:42:49.423Z,12.60
2018-07-04T01:46:05.197Z,12.40
2018-07-04T01:49:20.834Z,12.30
2018-07-04T01:52:36.807Z,12.20
2018-07-04T01:55:52.944Z,12.40
2018-07-04T01:59:09.141Z,12.20
2018-07-04T02:02:24.936Z,12.20
2018-07-04T02:05:41.027Z,12.30
2018-07-04T02:08:58.349Z,12.20
2018-07-04T02:12:14.107Z,12.40
2018-07-04T02:15:30.450Z,12.40
2018-07-04T02:18:46.250Z,12.10
2018-07-04T02:22:02.456Z,11.80
2018-07-04T02:25:18.540Z,11.80
2018-07-04T02:28:34.737Z,12.00
2018-07-04T02:31:50.625Z,11.90
2018-07-04T02:35:06.194Z,11.80
2018-07-04T02:38:22.077Z,11.60
2018-07-04T02:41:37.969Z,11.70
2018-07-04T02:44:53.682Z,11.60
2018-07-04T02:48:09.544Z,11.50
2018-07-04T02:51:26.252Z,11.40
2018-07-04T02:54:42.156Z,11.60
2018-07-04T02:57:59.148Z,11.60
2018-07-04T03:01:15.276Z,11.70
2018-07-04T03:04:31.193Z,11.50
2018-07-04T03:07:47.051Z,11.60
2018-07-04T03:11:03.381Z,11.60
2018-07-04T03:14:19.438Z,11.60
2018-07-04T03:17:35.842Z,11.70
2018-07-04T03:20:51.963Z,11.40
2018-07-04T03:24:07.962Z,11.60
2018-07-04T03:27:23.945Z,11.60
2018-07-04T03:30:39.717Z,11.70
2018-07-04T03:33:56.740Z,11.50
2018-07-04T03:37:12.489Z,11.50
2018-07-04T03:40:28.275Z,11.30
2018-07-04T03:43:44.042Z,11.30
2018-07-04T03:46:59.839Z,11.50
2018-07-04T03:50:15.805Z,11.50
2018-07-04T03:53:31.548Z,11.60
2018-07-04T03:56:47.414Z,11.60
2018-07-04T04:00:03.585Z,11.90
2018-07-04T04:03:19.688Z,11.80
2018-07-04T04:06:37.005Z,12.00
2018-07-04T04:09:52.847Z,11.90
2018-07-04T04:13:10.206Z,12.00
2018-07-04T04:16:26.422Z,12.20
2018-07-04T04:19:43.225Z,12.00
2018-07-04T04:23:00.362Z,12.10
2018-07-04T04:26:17.249Z,12.20
2018-07-04T04:29:34.292Z,12.40
2018-07-04T04:32:50.908Z,12.30
2018-07-04T04:36:06.840Z,12.30
2018-07-04T04:39:23.197Z,12.60
2018-07-04T04:42:39.068Z,12.70
2018-07-04T04:45:54.891Z,12.70
2018-07-04T04:49:12.731Z,12.90
2018-07-04T04:52:29.030Z,13.20
2018-07-04T04:55:44.666Z,13.20
2018-07-04T04:59:00.449Z,13.30
2018-07-04T05:02:16.160Z,13.40
2018-07-04T05:05:32.804Z,13.50
2018-07-04T05:08:49.374Z,13.80
2018-07-04T05:12:05.220Z,14.00
2018-07-04T05:15:20.929Z,14.10
2018-07-04T05:18:36.910Z,14.30
2018-07-04T05:21:53.249Z,14.50
2018-07-04T05:25:10.108Z,14.70
2018-07-04T05:28:26.910Z,14.80
2018-07-04T05:31:42.964Z,15.00
2018-07-04T05:34:58.662Z,15.20
2018-07-04T05:38:14.490Z,15.30
2018-07-04T05:41:30.753Z,15.40
2018-07-04T05:44:46.720Z,15.40
2018-07-04T05:48:02.791Z,15.70
2018-07-04T05:51:21.299Z,16.00
2018-07-04T05:54:52.912Z,16.00
2018-07-04T05:58:20.206Z,16.20
2018-07-04T06:01:39.460Z,16.40
2018-07-04T06:04:59.279Z,16.20
2018-07-04T06:08:15.484Z,16.10
2018-07-04T06:15:27.230Z,18.90
2018-07-04T06:18:42.949Z,21.90
2018-07-04T06:21:59.269Z,23.70
2018-07-04T06:25:15.068Z,25.30
2018-07-04T06:28:30.970Z,26.80
2018-07-04T06:31:46.792Z,27.90
2018-07-04T06:35:02.515Z,29.40
2018-07-04T06:38:06.018Z,30.00
2018-07-04T06:41:09.482Z,30.10
2018-07-04T06:44:12.589Z,30.60
2018-07-04T06:47:15.630Z,30.90
2018-07-04T06:50:18.895Z,31.00
2018-07-04T06:53:22.211Z,31.40
2018-07-04T06:56:25.486Z,30.70
2018-07-04T06:59:28.596Z,29.10
2018-07-04T07:02:31.793Z,28.90
2018-07-04T07:05:47.610Z,28.90
2018-07-04T07:09:03.290Z,29.80
2018-07-04T07:12:19.117Z,29.00
2018-07-04T07:15:35.132Z,27.10
2018-07-04T07:18:51.159Z,26.10
2018-07-04T07:22:06.926Z,26.10
2018-07-04T07:25:22.463Z,25.50
2018-07-04T07:28:38.103Z,26.90
2018-07-04T07:31:53.929Z,28.80
2018-07-04T07:35:09.810Z,30.00
2018-07-04T07:38:25.727Z,30.10
2018-07-04T07:41:41.322Z,30.20
2018-07-04T07:44:57.030Z,30.80
2018-07-04T07:48:12.667Z,32.20
2018-07-04T07:51:28.226Z,33.50
2018-07-04T07:54:43.797Z,34.50
2018-07-04T07:57:59.452Z,34.50
2018-07-04T08:01:14.911Z,34.60
2018-07-04T08:04:30.401Z,36.00
2018-07-04T08:07:46.466Z,36.00
2018-07-04T08:11:02.037Z,36.00
2018-07-04T08:14:17.615Z,35.10
2018-07-04T08:17:33.290Z,35.40
2018-07-04T08:20:48.978Z,33.90
2018-07-04T08:24:04.805Z,35.70
2018-07-04T08:27:20.566Z,36.50
2018-07-04T08:30:36.684Z,36.60
2018-07-04T08:33:52.426Z,37.60
2018-07-04T08:37:08.200Z,38.40
2018-07-04T08:40:24.045Z,37.70
2018-07-04T08:43:39.646Z,38.50
2018-07-04T08:46:56.910Z,38.20
2018-07-04T08:50:15.203Z,37.10
2018-07-04T08:53:30.939Z,38.10
2018-07-04T08:56:46.565Z,37.50
2018-07-04T09:00:03.166Z,38.00
2018-07-04T09:03:18.806Z,38.10
2018-07-04T09:06:34.932Z,37.50
2018-07-04T09:09:50.393Z,37.60
2018-07-04T09:13:06.145Z,38.00
2018-07-04T09:16:21.794Z,38.30
2018-07-04T09:19:37.704Z,37.80
2018-07-04T09:22:53.263Z,38.60
2018-07-04T09:26:09.234Z,37.30
2018-07-04T09:29:25.335Z,37.60
2018-07-04T09:32:41.427Z,37.60
2018-07-04T09:35:57.182Z,37.30
2018-07-04T09:39:13.188Z,37.30
2018-07-04T09:42:28.765Z,36.70
2018-07-04T09:45:44.561Z,36.70
2018-07-04T09:49:00.143Z,37.10
2018-07-04T09:52:16.250Z,36.30
2018-07-04T09:55:32.018Z,35.20
2018-07-04T09:58:50.984Z,34.80
2018-07-04T10:02:07.255Z,35.30
2018-07-04T10:05:24.939Z,36.10
2018-07-04T10:08:42.377Z,35.40
2018-07-04T10:11:57.995Z,34.30
2018-07-04T10:15:22.360Z,34.00
2018-07-04T10:19:28.183Z,33.60
2018-07-04T10:22:53.781Z,33.20
2018-07-04T10:45:59.821Z,33.80
2018-07-04T11:23:31.118Z,32.50
2018-07-04T11:27:04.407Z,33.70
2018-07-04T11:34:14.251Z,33.30
2018-07-04T11:37:31.365Z,33.40
2018-07-04T11:40:52.898Z,33.90
2018-07-04T11:44:12.537Z,33.20
2018-07-04T11:47:16.010Z,32.90
2018-07-04T11:53:36.444Z,32.70
2018-07-04T11:56:43.853Z,31.60
2018-07-04T12:03:31.881Z,32.00
2018-07-04T12:07:39.798Z,32.30
2018-07-04T12:10:53.641Z,32.00
2018-07-04T12:14:25.945Z,32.10
2018-07-04T12:17:36.270Z,31.80
2018-07-04T12:24:12.162Z,31.70
2018-07-04T12:27:15.557Z,31.60
2018-07-04T12:30:18.842Z,31.50
2018-07-04T12:33:22.103Z,31.50
2018-07-04T12:36:28.924Z,31.20
2018-07-04T12:39:36.214Z,31.60
2018-07-04T12:42:54.563Z,31.10
2018-07-04T12:45:58.045Z,31.40
2018-07-04T12:49:03.295Z,31.30
2018-07-04T12:52:07.631Z,31.10
2018-07-04T12:55:24.500Z,31.10
2018-07-04T12:58:40.095Z,30.90
2018-07-04T13:02:59.784Z,31.00
2018-07-04T13:06:16.405Z,31.00
2018-07-04T13:09:33.549Z,30.60
2018-07-04T13:12:49.278Z,30.80
2018-07-04T13:16:04.980Z,30.70
2018-07-04T13:19:20.952Z,30.80
2018-07-04T13:22:36.461Z,31.10
2018-07-04T13:25:51.961Z,31.00
2018-07-04T13:29:10.455Z,31.30
2018-07-04T13:32:30.630Z,31.30
2018-07-04T13:35:46.386Z,31.20
2018-07-04T13:39:01.954Z,31.20
2018-07-04T13:42:17.814Z,31.10
2018-07-04T13:45:33.495Z,31.20
2018-07-04T13:48:49.272Z,31.00
2018-07-04T13:52:04.829Z,31.10
2018-07-04T13:55:21.280Z,31.20
2018-07-04T13:58:36.695Z,30.70
2018-07-04T14:01:52.618Z,30.50
2018-07-04T14:05:08.300Z,30.40
2018-07-04T14:08:23.872Z,30.20
2018-07-04T14:11:39.461Z,30.20
2018-07-04T14:14:59.891Z,30.30
2018-07-04T14:18:15.674Z,30.30
2018-07-04T14:21:33.235Z,30.20
2018-07-04T14:24:49.101Z,30.40
2018-07-04T14:28:04.950Z,30.40
2018-07-04T14:31:20.748Z,30.50
2018-07-04T14:37:46.685Z,30.50
2018-07-04T14:41:02.329Z,30.10
2018-07-04T14:44:17.961Z,30.30
2018-07-04T14:47:33.590Z,30.20
2018-07-04T14:50:49.648Z,30.20
2018-07-04T14:54:05.233Z,30.50
2018-07-04T14:57:21.012Z,30.10
2018-07-04T15:00:36.650Z,29.90
2018-07-04T15:03:53.175Z,29.90
2018-07-04T15:07:09.704Z,30.10
2018-07-04T15:10:25.334Z,30.00
2018-07-04T15:13:41.971Z,30.20
2018-07-04T15:16:57.510Z,30.20
2018-07-04T15:20:13.523Z,30.00
2018-07-04T15:23:29.331Z,30.00
2018-07-04T15:26:45.300Z,30.00
2018-07-04T15:30:01.129Z,30.00
2018-07-04T15:33:17.143Z,29.90
2018-07-04T15:36:33.873Z,29.80
2018-07-04T15:40:12.683Z,29.70
2018-07-04T15:43:29.154Z,29.70
2018-07-04T15:46:45.827Z,29.50
2018-07-04T15:50:01.552Z,29.60
2018-07-04T15:53:22.138Z,29.60
2018-07-04T15:56:37.983Z,29.80
2018-07-04T15:59:53.782Z,29.60
2018-07-04T16:03:10.039Z,29.70
2018-07-04T16:06:26.861Z,29.50
2018-07-04T16:09:42.960Z,29.20
2018-07-04T16:12:58.833Z,28.90
2018-07-04T16:16:14.692Z,29.00
2018-07-04T16:19:30.334Z,29.00
2018-07-04T16:22:46.064Z,28.90
2018-07-04T16:26:01.759Z,28.90
2018-07-04T16:29:17.669Z,29.10
2018-07-04T16:32:33.524Z,29.10
2018-07-04T16:35:49.457Z,29.10
2018-07-04T16:39:05.863Z,29.10
2018-07-04T16:42:21.519Z,29.00
2018-07-04T16:45:37.348Z,29.00
2018-07-04T16:48:53.381Z,28.90
2018-07-04T16:52:09.016Z,29.00
2018-07-04T16:55:24.918Z,28.90
2018-07-04T16:58:40.674Z,29.00
2018-07-04T17:01:56.480Z,29.10
2018-07-04T17:05:12.086Z,29.10
2018-07-04T17:08:28.900Z,29.10
2018-07-04T17:11:44.776Z,29.10
2018-07-04T17:15:00.560Z,29.00
2018-07-04T17:18:16.208Z,29.20
2018-07-04T17:21:31.855Z,29.20
2018-07-04T17:24:47.879Z,29.20
2018-07-04T17:28:03.940Z,29.10
2018-07-04T17:31:19.978Z,29.00
2018-07-04T17:34:36.249Z,29.00
2018-07-04T17:37:52.238Z,28.90
2018-07-04T17:41:07.914Z,28.80
2018-07-04T17:44:24.097Z,28.70
2018-07-04T17:47:40.303Z,28.70
2018-07-04T17:50:56.502Z,28.70
2018-07-04T17:54:12.923Z,28.80
2018-07-04T17:57:28.802Z,28.90
2018-07-04T18:00:44.539Z,29.00
2018-07-04T18:04:00.168Z,28.90
2018-07-04T18:07:15.836Z,28.90
2018-07-04T18:10:32.068Z,28.90
2018-07-04T18:13:47.726Z,28.80
2018-07-04T18:17:04.565Z,28.60
2018-07-04T18:20:22.023Z,28.50
2018-07-04T18:23:40.873Z,28.40
2018-07-04T18:26:57.248Z,28.20
2018-07-04T18:30:13.042Z,28.10
2018-07-04T18:33:28.740Z,27.90
2018-07-04T18:36:44.609Z,27.80
2018-07-04T18:40:00.547Z,27.60
2018-07-04T18:43:16.672Z,27.50
2018-07-04T18:46:32.689Z,27.30
2018-07-04T18:49:49.504Z,27.10
2018-07-04T18:53:05.105Z,27.00
2018-07-04T18:56:20.604Z,26.80
2018-07-04T18:59:36.442Z,26.60
2018-07-04T19:02:52.919Z,26.40
2018-07-04T19:06:08.979Z,26.30
2018-07-04T19:09:24.869Z,26.10
2018-07-04T19:12:40.394Z,25.90
2018-07-04T19:15:56.240Z,25.60
2018-07-04T19:19:11.998Z,25.40
2018-07-04T19:22:27.626Z,25.20
2018-07-04T19:25:43.398Z,25.00
2018-07-04T19:29:17.812Z,24.80
2018-07-04T19:32:33.282Z,24.60
2018-07-04T19:35:50.342Z,24.40
2018-07-04T19:39:06.596Z,24.20
2018-07-04T19:42:22.835Z,24.00
2018-07-04T19:45:39.203Z,23.90
2018-07-04T19:48:56.965Z,23.80
2018-07-04T19:52:12.747Z,23.60
2018-07-04T19:55:28.578Z,23.50
2018-07-04T19:58:44.403Z,23.30
2018-07-04T20:02:00.123Z,23.30
2018-07-04T20:05:16.328Z,23.10
2018-07-04T20:08:32.085Z,23.00
2018-07-04T20:11:48.179Z,22.90
2018-07-04T20:15:04.081Z,22.90
2018-07-04T20:18:19.884Z,22.70
2018-07-04T20:25:12.639Z,22.70
2018-07-04T20:28:28.723Z,22.70
2018-07-04T20:31:45.914Z,22.70
2018-07-04T20:35:01.979Z,22.70
2018-07-04T20:38:18.828Z,22.80
2018-07-04T20:41:34.978Z,22.60
2018-07-04T20:44:50.802Z,22.60
2018-07-04T20:48:06.637Z,22.60
2018-07-04T20:51:22.608Z,22.70
2018-07-04T20:54:38.402Z,22.60
2018-07-04T20:57:55.931Z,22.50
2018-07-04T21:01:11.527Z,22.40
2018-07-04T21:04:27.121Z,22.20
2018-07-04T21:07:43.053Z,22.10
2018-07-04T21:10:59.991Z,21.90
2018-07-04T21:14:15.551Z,21.80
2018-07-04T21:17:31.343Z,21.70
2018-07-04T21:20:47.542Z,21.60
2018-07-04T21:24:03.303Z,21.50
2018-07-04T21:27:20.690Z,21.40
2018-07-04T21:30:37.012Z,21.40
2018-07-04T21:33:53.221Z,21.30
2018-07-04T21:37:09.659Z,21.20
2018-07-04T21:40:25.931Z,21.10
2018-07-04T21:43:41.761Z,20.90
2018-07-04T21:46:57.671Z,20.80
2018-07-04T21:50:13.502Z,20.70
2018-07-04T21:53:29.220Z,20.70
2018-07-04T21:56:44.999Z,20.50
2018-07-04T22:00:01.029Z,20.30
2018-07-04T22:03:16.680Z,20.30
2018-07-04T22:06:32.495Z,20.10
2018-07-04T22:09:48.539Z,19.90
2018-07-04T22:13:04.890Z,19.90
2018-07-04T22:16:21.030Z,19.80
2018-07-04T22:19:36.483Z,19.80
2018-07-04T22:22:52.041Z,19.90
2018-07-04T22:26:07.860Z,19.90
2018-07-04T22:29:23.833Z,19.80
2018-07-04T22:35:49.268Z,19.60
2018-07-04T22:39:05.419Z,19.50
2018-07-04T22:42:21.214Z,19.50
2018-07-04T22:45:37.234Z,19.40
2018-07-04T22:48:53.003Z,19.40
2018-07-04T22:52:09.061Z,19.40
2018-07-04T22:55:24.786Z,19.30
2018-07-04T22:58:40.682Z,19.20
2018-07-04T23:01:56.464Z,19.20
2018-07-04T23:05:12.219Z,19.10
2018-07-04T23:08:28.137Z,19.10
2018-07-04T23:11:43.872Z,19.00
2018-07-04T23:14:59.582Z,18.90
2018-07-04T23:18:15.380Z,19.00
2018-07-04T23:21:30.893Z,18.90
2018-07-04T23:24:46.726Z,18.80
2018-07-04T23:28:02.787Z,18.80
2018-07-04T23:31:18.915Z,18.70
2018-07-04T23:34:34.875Z,18.60
2018-07-04T23:37:50.572Z,18.60
2018-07-04T23:41:06.447Z,18.50
2018-07-04T23:44:22.045Z,18.50
2018-07-04T23:47:37.573Z,18.40
2018-07-04T23:50:53.276Z,18.30
2018-07-04T23:54:09.091Z,18.20
2018-07-04T23:57:24.989Z,18.30
